createdAt,value
2023-01-31T00:01:30.885Z,102440.19
2023-01-31T00:04:00.274Z,102454.84
2023-01-31T00:06:29.655Z,102454.53
2023-01-31T00:08:58.689Z,102447.50
2023-01-31T00:11:28.159Z,102448.34
2023-01-31T00:13:56.792Z,102456.38
2023-01-31T00:16:26.609Z,102450.50
2023-01-31T00:18:54.605Z,102463.69
2023-01-31T00:21:23.864Z,102452.66
2023-01-31T00:23:52.655Z,102456.84
2023-01-31T00:26:21.841Z,102460.50
2023-01-31T00:28:51.108Z,102464.19
2023-01-31T00:31:20.475Z,102464.34
2023-01-31T00:33:50.956Z,102458.16
2023-01-31T00:36:20.828Z,102449.63
2023-01-31T00:38:49.773Z,102451.97
2023-01-31T00:41:17.496Z,102454.78
2023-01-31T00:43:45.293Z,102453.81
2023-01-31T00:46:13.086Z,102456.47
2023-01-31T00:48:40.993Z,102451.28
2023-01-31T00:51:10.235Z,102461.97
2023-01-31T00:53:38.394Z,102455.59
2023-01-31T00:56:08.492Z,102454.13
2023-01-31T00:58:37.405Z,102449.78
2023-01-31T01:01:09.158Z,102453.75
2023-01-31T01:03:37.715Z,102443.59
2023-01-31T01:06:06.619Z,102442.06
2023-01-31T01:08:37.294Z,102442.75
2023-01-31T01:11:08.627Z,102439.41
2023-01-31T01:13:37.231Z,102439.56
2023-01-31T01:16:07.084Z,102440.38
2023-01-31T01:18:36.138Z,102434.06
2023-01-31T01:21:09.152Z,102434.06
2023-01-31T01:23:38.694Z,102429.88
2023-01-31T01:26:06.880Z,102424.53
2023-01-31T01:28:36.401Z,102414.81
2023-01-31T01:31:07.661Z,102408.66
2023-01-31T01:33:36.307Z,102408.66
2023-01-31T01:36:04.648Z,102405.97
2023-01-31T01:38:34.615Z,102410.63
2023-01-31T01:41:04.781Z,102401.78
2023-01-31T01:43:44.529Z,102404.28
2023-01-31T01:46:14.746Z,102405.44
2023-01-31T01:48:45.575Z,102397.59
2023-01-31T01:51:15.546Z,102391.72
2023-01-31T01:53:45.140Z,102402.94
2023-01-31T01:56:18.811Z,102389.06
2023-01-31T01:58:52.523Z,102400.44
2023-01-31T02:01:20.985Z,102391.72
2023-01-31T02:03:50.066Z,102381.38
2023-01-31T02:06:17.841Z,102398.75
2023-01-31T02:08:46.391Z,102392.56
2023-01-31T02:11:22.525Z,102401.41
2023-01-31T02:13:53.523Z,102409.44
2023-01-31T02:16:21.269Z,102413.09
2023-01-31T02:18:49.812Z,102407.22
2023-01-31T02:21:54.682Z,102408.06
2023-01-31T02:24:47.988Z,102408.22
2023-01-31T02:27:30.793Z,102408.38
2023-01-31T02:30:25.126Z,102419.91
2023-01-31T02:33:04.328Z,102417.38
2023-01-31T02:35:50.683Z,102417.38
2023-01-31T02:38:40.498Z,102421.06
2023-01-31T02:41:17.395Z,102429.06
2023-01-31T02:44:10.665Z,102420.22
2023-01-31T02:46:46.858Z,102415.88
2023-01-31T02:49:34.633Z,102412.53
2023-01-31T02:52:18.218Z,102417.88
2023-01-31T02:55:17.773Z,102414.66
2023-01-31T02:57:48.253Z,102416.19
2023-01-31T03:00:16.630Z,102415.19
2023-01-31T03:02:44.479Z,102412.84
2023-01-31T03:05:16.565Z,102418.03
2023-01-31T03:07:48.935Z,102412.00
2023-01-31T03:10:59.846Z,102405.81
2023-01-31T03:13:42.730Z,102408.50
2023-01-31T03:16:39.251Z,102401.47
2023-01-31T03:19:13.909Z,102389.94
2023-01-31T03:21:47.299Z,102401.63
2023-01-31T03:24:18.179Z,102389.28
2023-01-31T03:26:47.306Z,102389.44
2023-01-31T03:29:17.781Z,102390.41
2023-01-31T03:31:50.519Z,102393.78
2023-01-31T03:34:19.277Z,102385.91
2023-01-31T03:36:55.049Z,102390.25
2023-01-31T03:39:33.982Z,102389.44
2023-01-31T03:42:07.517Z,102388.59
2023-01-31T03:44:43.634Z,102372.72
2023-01-31T03:47:16.814Z,102384.25
2023-01-31T03:49:46.772Z,102372.88
2023-01-31T03:52:23.317Z,102376.22
2023-01-31T03:54:55.903Z,102371.19
2023-01-31T03:57:26.585Z,102364.03
2023-01-31T03:59:58.203Z,102367.53
2023-01-31T04:02:32.591Z,102366.84
2023-01-31T04:05:07.450Z,102361.38
2023-01-31T04:07:37.609Z,102365.88
2023-01-31T04:10:12.115Z,102369.53
2023-01-31T04:12:40.142Z,102357.47
2023-01-31T04:15:09.395Z,102372.03
2023-01-31T04:17:37.186Z,102363.88
2023-01-31T04:20:07.007Z,102362.34
2023-01-31T04:22:36.088Z,102359.84
2023-01-31T04:25:03.765Z,102369.38
2023-01-31T04:27:31.965Z,102364.19
2023-01-31T04:29:59.778Z,102365.88
2023-01-31T04:32:27.444Z,102371.19
2023-01-31T04:34:55.172Z,102358.84
2023-01-31T04:37:23.002Z,102353.50
2023-01-31T04:39:52.042Z,102359.69
2023-01-31T04:42:19.723Z,102351.69
2023-01-31T04:44:47.420Z,102351.00
2023-01-31T04:47:15.183Z,102352.97
2023-01-31T04:49:44.121Z,102359.00
2023-01-31T04:52:11.889Z,102364.50
2023-01-31T04:54:39.536Z,102365.50
2023-01-31T04:57:09.015Z,102350.47
2023-01-31T04:59:36.807Z,102348.63
2023-01-31T05:02:04.579Z,102352.31
2023-01-31T05:04:32.740Z,102337.28
2023-01-31T05:07:00.523Z,102327.59
2023-01-31T05:09:28.293Z,102325.91
2023-01-31T05:11:55.985Z,102323.25
2023-01-31T05:14:25.133Z,102333.09
2023-01-31T05:16:52.834Z,102310.75
2023-01-31T05:19:20.596Z,102303.72
2023-01-31T05:21:59.073Z,102307.38
2023-01-31T05:24:28.549Z,102299.69
2023-01-31T05:26:58.679Z,102302.88
2023-01-31T05:29:28.761Z,102281.47
2023-01-31T05:31:58.319Z,102301.38
2023-01-31T05:34:28.693Z,102296.03
2023-01-31T05:36:56.486Z,102298.69
2023-01-31T05:39:24.223Z,102296.03
2023-01-31T05:41:52.837Z,102296.34
2023-01-31T05:44:20.872Z,102304.88
2023-01-31T05:46:49.901Z,102287.19
2023-01-31T05:49:17.795Z,102290.69
2023-01-31T05:51:45.570Z,102284.34
2023-01-31T05:54:13.704Z,102289.69
2023-01-31T05:56:41.417Z,102287.03
2023-01-31T05:59:09.307Z,102297.88
2023-01-31T06:01:37.037Z,102281.69
2023-01-31T06:04:06.340Z,102273.72
2023-01-31T06:06:34.163Z,102275.97
2023-01-31T06:09:01.977Z,102276.50
2023-01-31T06:11:29.760Z,102277.41
2023-01-31T06:13:58.789Z,102283.66
2023-01-31T06:16:26.830Z,102282.81
2023-01-31T06:18:55.679Z,102287.31
2023-01-31T06:21:24.813Z,102293.00
2023-01-31T06:23:52.554Z,102293.66
2023-01-31T06:26:20.302Z,102279.94
2023-01-31T06:28:48.066Z,102283.09
2023-01-31T06:31:15.859Z,102287.03
2023-01-31T06:33:47.383Z,102291.53
2023-01-31T06:36:18.615Z,102294.38
2023-01-31T06:38:51.720Z,102285.69
2023-01-31T06:41:19.704Z,102287.84
2023-01-31T06:43:47.482Z,102282.81
2023-01-31T06:46:15.245Z,102281.16
2023-01-31T06:48:43.751Z,102290.16
2023-01-31T06:51:11.703Z,102277.97
2023-01-31T06:53:39.383Z,102284.13
2023-01-31T06:56:09.658Z,102279.78
2023-01-31T06:58:37.439Z,102279.09
2023-01-31T07:01:06.555Z,102272.94
2023-01-31T07:03:34.260Z,102269.44
2023-01-31T07:06:02.050Z,102269.75
2023-01-31T07:08:30.322Z,102265.25
2023-01-31T07:10:58.095Z,102267.22
2023-01-31T07:13:27.228Z,102271.72
2023-01-31T07:15:55.061Z,102262.38
2023-01-31T07:18:22.779Z,102261.38
2023-01-31T07:20:51.306Z,102269.38
2023-01-31T07:23:19.140Z,102263.19
2023-01-31T07:25:46.895Z,102269.22
2023-01-31T07:28:14.588Z,102269.53
2023-01-31T07:30:43.933Z,102270.22
2023-01-31T07:33:11.985Z,102259.69
2023-01-31T07:35:39.689Z,102257.88
2023-01-31T07:38:08.918Z,102261.38
2023-01-31T07:40:37.686Z,102250.69
2023-01-31T07:43:05.368Z,102256.88
2023-01-31T07:45:33.417Z,102255.03
2023-01-31T07:48:02.503Z,102256.41
2023-01-31T07:50:30.813Z,102246.03
2023-01-31T07:52:59.034Z,102245.19
2023-01-31T07:55:26.947Z,102245.34
2023-01-31T07:57:54.686Z,102239.84
2023-01-31T08:00:40.508Z,102242.84
2023-01-31T08:03:33.944Z,102230.34
2023-01-31T08:06:03.410Z,102223.00
2023-01-31T08:08:31.331Z,102210.28
2023-01-31T08:10:59.209Z,102214.16
2023-01-31T08:13:27.851Z,102221.00
2023-01-31T08:15:55.557Z,102230.00
2023-01-31T08:18:24.669Z,102202.31
2023-01-31T08:20:52.391Z,102211.31
2023-01-31T08:23:20.115Z,102212.31
2023-01-31T08:25:47.779Z,102223.00
2023-01-31T08:28:16.240Z,102202.47
2023-01-31T08:30:50.319Z,102211.31
2023-01-31T08:33:25.865Z,102213.00
2023-01-31T08:35:53.613Z,102217.19
2023-01-31T08:38:21.814Z,102207.34
2023-01-31T08:40:50.187Z,102193.00
2023-01-31T08:43:17.930Z,102189.31
2023-01-31T08:45:46.789Z,102193.81
2023-01-31T08:48:14.962Z,102181.31
2023-01-31T08:50:44.084Z,102178.47
2023-01-31T08:53:11.824Z,102180.16
2023-01-31T08:55:39.556Z,102181.00
2023-01-31T08:58:07.263Z,102181.97
2023-01-31T09:00:35.639Z,102178.16
2023-01-31T09:03:03.439Z,102172.81
2023-01-31T09:05:33.501Z,102167.47
2023-01-31T09:08:02.760Z,102164.66
2023-01-31T09:10:30.477Z,102158.97
2023-01-31T09:13:00.261Z,102165.00
2023-01-31T09:15:28.680Z,102159.97
2023-01-31T09:17:56.652Z,102149.13
2023-01-31T09:20:24.362Z,102146.47
2023-01-31T09:22:52.035Z,102160.31
2023-01-31T09:25:33.513Z,102165.66
2023-01-31T09:28:08.715Z,102154.00
2023-01-31T09:30:36.435Z,102156.50
2023-01-31T09:33:04.167Z,102151.00
2023-01-31T09:35:32.072Z,102136.63
2023-01-31T09:37:59.861Z,102126.94
2023-01-31T09:40:33.295Z,102133.81
2023-01-31T09:43:05.078Z,102132.13
2023-01-31T09:45:35.191Z,102121.59
2023-01-31T09:48:04.015Z,102129.63
2023-01-31T09:50:36.668Z,102131.28
2023-01-31T09:53:04.982Z,102133.81
2023-01-31T09:55:42.407Z,102145.31
2023-01-31T09:58:19.781Z,102138.81
2023-01-31T10:00:52.600Z,102127.97
2023-01-31T10:03:43.630Z,102120.78
2023-01-31T10:06:20.347Z,102120.94
2023-01-31T10:08:53.910Z,102124.63
2023-01-31T10:11:32.004Z,102131.63
2023-01-31T10:14:06.862Z,102132.47
2023-01-31T10:16:39.467Z,102142.00
2023-01-31T10:19:11.532Z,102133.16
2023-01-31T10:21:43.072Z,102142.00
2023-01-31T10:24:18.579Z,102128.63
2023-01-31T10:26:50.226Z,102123.97
2023-01-31T10:29:29.501Z,102112.28
2023-01-31T10:32:01.686Z,102099.75
2023-01-31T10:34:32.628Z,102104.25
2023-01-31T10:37:06.785Z,102111.44
2023-01-31T10:39:38.097Z,102111.94
2023-01-31T10:42:19.308Z,102124.31
2023-01-31T10:44:53.673Z,102125.16
2023-01-31T10:47:23.789Z,102128.31
2023-01-31T10:49:52.004Z,102136.66
2023-01-31T10:52:37.292Z,102129.31
2023-01-31T10:55:19.329Z,102100.25
2023-01-31T10:57:48.840Z,102105.94
2023-01-31T11:00:23.544Z,102098.94
2023-01-31T11:02:51.547Z,102094.09
2023-01-31T11:05:22.364Z,102103.63
2023-01-31T11:07:50.861Z,102101.94
2023-01-31T11:10:24.332Z,102098.94
2023-01-31T11:12:59.735Z,102102.44
2023-01-31T11:15:29.812Z,102098.09
2023-01-31T11:18:01.023Z,102104.13
2023-01-31T11:20:31.325Z,102086.91
2023-01-31T11:23:02.107Z,102089.59
2023-01-31T11:25:32.375Z,102083.41
2023-01-31T11:28:04.642Z,102072.72
2023-01-31T11:30:35.012Z,102084.56
2023-01-31T11:33:03.728Z,102060.31
2023-01-31T11:35:32.909Z,102064.78
2023-01-31T11:38:02.433Z,102058.22
2023-01-31T11:40:33.083Z,102058.69
2023-01-31T11:43:04.180Z,102066.94
2023-01-31T11:45:33.009Z,102056.81
2023-01-31T11:48:08.541Z,102058.75
2023-01-31T11:50:39.333Z,102058.34
2023-01-31T11:53:18.103Z,102056.97
2023-01-31T11:55:47.374Z,102058.22
2023-01-31T11:58:21.548Z,102047.91
2023-01-31T12:00:56.836Z,102044.13
2023-01-31T12:03:25.794Z,102037.88
2023-01-31T12:06:01.951Z,102038.34
2023-01-31T12:08:32.048Z,102061.25
2023-01-31T12:11:00.343Z,102058.41
2023-01-31T12:13:29.818Z,102043.16
2023-01-31T12:16:00.420Z,102049.16
2023-01-31T12:18:45.401Z,102044.28
2023-01-31T12:21:16.325Z,102041.06
2023-01-31T12:23:57.293Z,102049.28
2023-01-31T12:26:35.842Z,102053.63
2023-01-31T12:29:25.452Z,102048.72
2023-01-31T12:32:09.875Z,102025.16
2023-01-31T12:35:02.951Z,102039.97
2023-01-31T12:37:47.459Z,102043.47
2023-01-31T12:40:39.069Z,102042.94
2023-01-31T12:43:21.040Z,102038.56
2023-01-31T12:46:04.467Z,102036.00
2023-01-31T12:49:00.618Z,102040.34
2023-01-31T12:51:40.895Z,102041.81
2023-01-31T12:54:24.571Z,102044.50
2023-01-31T12:57:02.855Z,102047.66
2023-01-31T12:59:43.308Z,102044.78
2023-01-31T13:02:25.694Z,102040.44
2023-01-31T13:04:59.063Z,102033.22
2023-01-31T13:07:34.159Z,102025.19
2023-01-31T13:10:06.483Z,102035.16
2023-01-31T13:12:37.447Z,102028.78
2023-01-31T13:15:15.563Z,102029.25
2023-01-31T13:17:45.762Z,102023.69
2023-01-31T13:20:25.057Z,102021.19
2023-01-31T13:22:57.019Z,102018.16
2023-01-31T13:25:36.229Z,102014.25
2023-01-31T13:28:10.903Z,102012.41
2023-01-31T13:30:42.879Z,102014.91
2023-01-31T13:33:25.595Z,102023.59
2023-01-31T13:36:02.901Z,102030.19
2023-01-31T13:38:37.911Z,102026.94
2023-01-31T13:41:09.469Z,102028.13
2023-01-31T13:43:37.157Z,102026.63
2023-01-31T13:46:09.480Z,102028.44
2023-01-31T13:48:43.846Z,102024.06
2023-01-31T13:51:19.128Z,102021.84
2023-01-31T13:53:50.768Z,102015.72
2023-01-31T13:56:24.744Z,102015.78
2023-01-31T13:58:53.324Z,102014.81
2023-01-31T14:01:25.729Z,102003.13
2023-01-31T14:04:24.731Z,102013.53
2023-01-31T14:07:11.424Z,102013.22
2023-01-31T14:09:41.083Z,102004.06
2023-01-31T14:12:32.264Z,102013.28
2023-01-31T14:15:00.369Z,102007.28
2023-01-31T14:18:00.264Z,102009.47
2023-01-31T14:20:32.171Z,102006.13
2023-01-31T14:23:30.910Z,102011.84
2023-01-31T14:25:58.787Z,102012.69
2023-01-31T14:28:26.982Z,102020.13
2023-01-31T14:30:56.357Z,102025.75
2023-01-31T14:33:30.284Z,102036.03
2023-01-31T14:36:37.588Z,102039.22
2023-01-31T14:39:44.142Z,102037.03
2023-01-31T14:42:30.557Z,102036.88
2023-01-31T14:45:20.400Z,102046.44
2023-01-31T14:48:00.112Z,102046.81
2023-01-31T14:50:39.608Z,102057.94
2023-01-31T14:53:18.753Z,102053.31
2023-01-31T14:56:07.663Z,102060.81
2023-01-31T14:58:36.797Z,102063.75
2023-01-31T15:01:08.662Z,102073.03
2023-01-31T15:03:40.295Z,102066.91
2023-01-31T15:06:11.947Z,102069.59
2023-01-31T15:08:42.689Z,102072.25
2023-01-31T15:11:42.918Z,102067.03
2023-01-31T15:14:37.606Z,102076.69
2023-01-31T15:17:31.801Z,102087.66
2023-01-31T15:20:14.432Z,102087.53
2023-01-31T15:22:44.040Z,102085.63
2023-01-31T15:25:25.284Z,102082.81
2023-01-31T15:27:57.025Z,102079.19
2023-01-31T15:30:28.961Z,102067.88
2023-01-31T15:33:00.288Z,102091.44
2023-01-31T15:35:31.378Z,102090.97
2023-01-31T15:38:05.005Z,102102.03
2023-01-31T15:40:33.654Z,102094.34
2023-01-31T15:43:21.849Z,102084.47
2023-01-31T15:45:52.400Z,102081.44
2023-01-31T15:48:21.777Z,102079.78
2023-01-31T15:50:52.278Z,102080.78
2023-01-31T15:53:23.398Z,102080.59
2023-01-31T15:55:53.246Z,102074.47
2023-01-31T15:58:25.547Z,102075.81
2023-01-31T16:00:55.253Z,102076.69
2023-01-31T16:03:25.590Z,102086.34
2023-01-31T16:05:55.888Z,102080.81
2023-01-31T16:08:31.255Z,102089.56
2023-01-31T16:10:59.633Z,102092.31
2023-01-31T16:13:29.554Z,102102.25
2023-01-31T16:15:58.273Z,102108.91
2023-01-31T16:18:26.477Z,102118.66
2023-01-31T16:20:56.168Z,102125.56
2023-01-31T16:23:32.491Z,102132.09
2023-01-31T16:26:08.748Z,102118.06
2023-01-31T16:28:43.958Z,102125.44
2023-01-31T16:31:13.806Z,102123.75
2023-01-31T16:33:49.883Z,102123.94
2023-01-31T16:36:26.116Z,102136.69
2023-01-31T16:38:58.952Z,102137.03
2023-01-31T16:41:45.163Z,102131.16
2023-01-31T16:44:18.301Z,102140.38
2023-01-31T16:46:47.846Z,102135.00
2023-01-31T16:49:22.386Z,102137.88
2023-01-31T16:51:51.695Z,102150.44
2023-01-31T16:54:22.980Z,102145.06
2023-01-31T16:57:19.550Z,102148.75
2023-01-31T16:59:51.433Z,102148.09
2023-01-31T17:02:23.553Z,102144.59
2023-01-31T17:04:53.959Z,102145.25
2023-01-31T17:07:24.412Z,102141.81
2023-01-31T17:09:56.545Z,102135.69
2023-01-31T17:12:26.715Z,102138.91
2023-01-31T17:15:00.770Z,102122.31
2023-01-31T17:17:30.898Z,102128.75
2023-01-31T17:19:58.662Z,102123.88
2023-01-31T17:22:26.797Z,102115.03
2023-01-31T17:24:54.531Z,102118.94
2023-01-31T17:27:23.051Z,102113.84
2023-01-31T17:29:50.836Z,102114.75
2023-01-31T17:32:21.962Z,102110.69
2023-01-31T17:34:49.698Z,102105.47
2023-01-31T17:37:26.756Z,102099.91
2023-01-31T17:39:59.552Z,102098.66
2023-01-31T17:42:27.270Z,102101.59
2023-01-31T17:44:54.990Z,102097.13
2023-01-31T17:47:26.877Z,102100.16
2023-01-31T17:49:54.860Z,102092.66
2023-01-31T17:52:22.630Z,102109.28
2023-01-31T17:54:50.440Z,102101.59
2023-01-31T17:57:18.204Z,102107.53
2023-01-31T17:59:45.972Z,102104.56
2023-01-31T18:02:14.012Z,102099.56
2023-01-31T18:04:43.155Z,102107.09
2023-01-31T18:07:11.094Z,102111.34
2023-01-31T18:09:38.839Z,102098.94
2023-01-31T18:12:06.907Z,102098.47
2023-01-31T18:14:34.857Z,102103.16
2023-01-31T18:17:02.587Z,102097.97
2023-01-31T18:19:30.460Z,102099.16
2023-01-31T18:21:59.752Z,102100.97
2023-01-31T18:24:27.719Z,102098.72
2023-01-31T18:26:57.111Z,102100.03
2023-01-31T18:29:26.351Z,102117.22
2023-01-31T18:31:57.474Z,102112.44
2023-01-31T18:34:25.465Z,102120.72
2023-01-31T18:36:53.195Z,102119.75
2023-01-31T18:39:23.577Z,102115.06
2023-01-31T18:41:51.348Z,102125.47
2023-01-31T18:44:19.105Z,102104.94
2023-01-31T18:46:46.939Z,102116.59
2023-01-31T18:49:14.745Z,102111.13
2023-01-31T18:51:42.806Z,102117.31
2023-01-31T18:54:10.969Z,102121.66
2023-01-31T18:56:40.201Z,102123.09
2023-01-31T18:59:08.065Z,102126.84
2023-01-31T19:01:36.102Z,102124.22
2023-01-31T19:04:04.007Z,102126.81
2023-01-31T19:06:36.391Z,102124.84
2023-01-31T19:09:06.763Z,102120.00
2023-01-31T19:11:34.858Z,102118.34
2023-01-31T19:14:06.828Z,102128.06
2023-01-31T19:16:37.739Z,102130.91
2023-01-31T19:19:05.463Z,102122.22
2023-01-31T19:21:34.501Z,102128.75
2023-01-31T19:24:03.960Z,102129.16
2023-01-31T19:26:34.137Z,102133.38
2023-01-31T19:29:02.632Z,102130.88
2023-01-31T19:31:33.710Z,102135.56
2023-01-31T19:34:03.708Z,102131.41
2023-01-31T19:36:33.461Z,102139.63
2023-01-31T19:39:04.376Z,102134.31
2023-01-31T19:41:33.218Z,102151.88
2023-01-31T19:44:02.383Z,102145.84
2023-01-31T19:46:33.164Z,102150.38
2023-01-31T19:49:01.649Z,102135.84
2023-01-31T19:51:30.191Z,102147.22
2023-01-31T19:54:01.212Z,102145.72
2023-01-31T19:56:29.457Z,102140.38
2023-01-31T19:58:57.537Z,102146.91
2023-01-31T20:01:25.683Z,102137.19
2023-01-31T20:03:55.307Z,102142.69
2023-01-31T20:06:26.129Z,102149.91
2023-01-31T20:08:55.560Z,102137.69
2023-01-31T20:11:24.143Z,102138.69
2023-01-31T20:13:52.364Z,102150.25
2023-01-31T20:16:21.032Z,102146.56
2023-01-31T20:18:49.968Z,102144.06
2023-01-31T20:21:20.461Z,102138.69
2023-01-31T20:23:48.550Z,102145.91
2023-01-31T20:26:18.202Z,102136.19
2023-01-31T20:28:46.207Z,102139.06
2023-01-31T20:31:16.181Z,102137.22
2023-01-31T20:33:44.504Z,102125.84
2023-01-31T20:36:15.285Z,102126.69
2023-01-31T20:38:44.385Z,102132.03
2023-01-31T20:41:14.989Z,102125.00
2023-01-31T20:43:43.426Z,102130.34
2023-01-31T20:46:13.179Z,102135.72
2023-01-31T20:48:42.397Z,102134.03
2023-01-31T20:51:10.486Z,102132.38
2023-01-31T20:53:38.973Z,102131.72
2023-01-31T20:56:09.749Z,102123.69
2023-01-31T20:58:39.705Z,102118.50
2023-01-31T21:01:08.799Z,102120.53
2023-01-31T21:03:37.165Z,102124.03
2023-01-31T21:06:05.884Z,102121.34
2023-01-31T21:08:35.473Z,102118.84
2023-01-31T21:11:06.589Z,102119.69
2023-01-31T21:13:36.525Z,102131.41
2023-01-31T21:16:09.495Z,102128.91
2023-01-31T21:18:39.206Z,102121.03
2023-01-31T21:21:09.131Z,102121.69
2023-01-31T21:23:38.020Z,102118.84
2023-01-31T21:26:07.902Z,102119.84
2023-01-31T21:28:37.778Z,102119.38
2023-01-31T21:31:08.666Z,102108.66
2023-01-31T21:33:37.026Z,102108.00
2023-01-31T21:36:08.809Z,102118.72
2023-01-31T21:38:36.553Z,102111.69
2023-01-31T21:41:22.300Z,102108.34
2023-01-31T21:43:51.413Z,102105.69
2023-01-31T21:46:19.201Z,102102.34
2023-01-31T21:48:46.939Z,102101.69
2023-01-31T21:51:16.329Z,102100.00
2023-01-31T21:53:44.616Z,102093.81
2023-01-31T21:56:14.228Z,102086.78
2023-01-31T21:58:42.523Z,102078.78
2023-01-31T22:01:14.459Z,102076.09
2023-01-31T22:03:43.628Z,102071.91
2023-01-31T22:06:15.208Z,102073.75
2023-01-31T22:08:43.446Z,102078.94
2023-01-31T22:11:13.257Z,102078.09
2023-01-31T22:13:41.467Z,102075.44
2023-01-31T22:16:12.598Z,102075.59
2023-01-31T22:18:41.928Z,102072.56
2023-01-31T22:21:12.232Z,102074.41
2023-01-31T22:23:41.815Z,102065.56
2023-01-31T22:26:12.254Z,102062.88
2023-01-31T22:28:40.804Z,102064.72
2023-01-31T22:31:09.815Z,102076.25
2023-01-31T22:33:41.111Z,102069.25
2023-01-31T22:36:10.699Z,102061.22
2023-01-31T22:38:38.917Z,102052.34
2023-01-31T22:41:08.831Z,102042.81
2023-01-31T22:43:38.008Z,102039.97
2023-01-31T22:46:07.739Z,102045.50
2023-01-31T22:48:36.233Z,102047.34
2023-01-31T22:51:07.369Z,102041.16
2023-01-31T22:53:37.565Z,102043.00
2023-01-31T22:56:07.547Z,102043.00
2023-01-31T22:58:35.660Z,102039.50
2023-01-31T23:01:03.737Z,102052.88
2023-01-31T23:03:31.500Z,102059.06
2023-01-31T23:05:59.199Z,102052.03
2023-01-31T23:08:28.272Z,102043.00
2023-01-31T23:10:56.012Z,102047.53
2023-01-31T23:13:23.664Z,102053.72
2023-01-31T23:15:51.414Z,102041.16
2023-01-31T23:18:19.152Z,102059.91
2023-01-31T23:20:46.897Z,102062.09
2023-01-31T23:23:14.635Z,102063.94
2023-01-31T23:25:43.694Z,102064.94
2023-01-31T23:28:11.383Z,102058.75
2023-01-31T23:30:39.197Z,102057.91
2023-01-31T23:33:06.912Z,102060.75
2023-01-31T23:35:34.600Z,102061.78
2023-01-31T23:38:03.374Z,102061.94
2023-01-31T23:40:31.133Z,102061.28
2023-01-31T23:43:00.230Z,102052.44
2023-01-31T23:45:27.933Z,102063.13
2023-01-31T23:47:55.695Z,102065.97
2023-01-31T23:50:23.764Z,102057.28
2023-01-31T23:52:51.783Z,102048.44
2023-01-31T23:55:20.242Z,102038.56
2023-01-31T23:57:48.027Z,102035.03
